Time;durP1;ratioP1;P1;durP2;ratioP2;P2;SDS_P1;SDS_P2;PMS_P1;PMS_P2;Temp;Humidity;BMP_temperature;BMP_pressure;BME280_temperature;BME280_humidity;BME280_pressure;Samples;Min_cycle;Max_cycle;Signal;HPM_P1;HPM_P2
2023/05/28 00:00:15;;;;;;;8.70;4.20;;;19.00;1.00;;;;;;4991843;28;20214;-74
2023/05/28 00:02:41;;;;;;;14.13;4.70;;;19.00;1.00;;;;;;4991163;28;20186;-74
2023/05/28 00:05:07;;;;;;;10.23;4.30;;;19.00;1.00;;;;;;4990243;28;20433;-75
2023/05/28 00:07:32;;;;;;;9.27;4.70;;;18.90;1.00;;;;;;4989650;28;20398;-74
2023/05/28 00:09:58;;;;;;;11.67;4.90;;;18.90;1.00;;;;;;4990233;28;20430;-75
2023/05/28 00:12:24;;;;;;;8.43;4.70;;;18.90;1.00;;;;;;4991432;28;20207;-75
2023/05/28 00:14:50;;;;;;;12.47;4.97;;;18.90;1.00;;;;;;4991150;28;20187;-74
2023/05/28 00:17:16;;;;;;;8.40;4.63;;;18.90;1.00;;;;;;4988688;28;20202;-75
2023/05/28 00:19:43;;;;;;;10.70;4.47;;;18.80;1.00;;;;;;4991275;28;20265;-75
2023/05/28 00:22:08;;;;;;;10.40;4.53;;;18.80;1.00;;;;;;4990052;28;20504;-75
2023/05/28 00:24:34;;;;;;;8.17;4.47;;;18.70;1.00;;;;;;4990767;28;20430;-74
2023/05/28 00:27:00;;;;;;;13.30;5.10;;;18.70;1.00;;;;;;4991165;28;20203;-75
2023/05/28 00:29:26;;;;;;;8.00;4.30;;;18.60;1.00;;;;;;4990122;28;20195;-75
2023/05/28 00:31:56;;;;;;;8.33;4.60;;;18.60;1.00;;;;;;4990791;28;21002;-75
2023/05/28 00:34:22;;;;;;;11.60;5.17;;;18.40;1.00;;;;;;4991244;28;20457;-75
2023/05/28 00:36:48;;;;;;;10.17;5.07;;;18.30;1.00;;;;;;4990160;28;20438;-75
2023/05/28 00:39:20;;;;;;;8.90;4.53;;;18.30;1.00;;;;;;4989831;28;20425;-75
2023/05/28 00:41:46;;;;;;;9.57;5.23;;;18.10;1.00;;;;;;4990620;28;20209;-75
2023/05/28 00:44:12;;;;;;;7.67;4.33;;;18.00;1.00;;;;;;4991000;28;20936;-75
2023/05/28 00:46:44;;;;;;;8.60;4.50;;;17.60;1.00;;;;;;4990187;28;20661;-74
2023/05/28 00:49:10;;;;;;;8.13;4.50;;;17.60;1.00;;;;;;4990227;28;20464;-75
2023/05/28 00:51:36;;;;;;;7.57;4.50;;;17.50;1.00;;;;;;4990365;28;20875;-74
2023/05/28 00:54:03;;;;;;;9.57;5.00;;;17.50;1.00;;;;;;4989840;28;20839;-75
2023/05/28 00:56:29;;;;;;;8.10;4.80;;;17.20;1.00;;;;;;4990538;28;20477;-75
2023/05/28 00:58:55;;;;;;;8.63;4.67;;;16.90;1.00;;;;;;4990493;28;20446;-75
2023/05/28 01:01:24;;;;;;;7.57;4.87;;;16.80;1.00;;;;;;4990679;28;20214;-75
2023/05/28 01:03:51;;;;;;;9.30;4.33;;;16.80;1.00;;;;;;4990365;28;20423;-75
2023/05/28 01:06:17;;;;;;;6.10;4.17;;;16.80;1.00;;;;;;4990693;28;20426;-75
2023/05/28 01:08:43;;;;;;;11.50;4.60;;;16.90;1.00;;;;;;4990511;28;20494;-74
2023/05/28 01:11:13;;;;;;;11.07;4.80;;;17.00;1.00;;;;;;4990587;28;20516;-75
2023/05/28 01:13:39;;;;;;;7.03;4.20;;;17.10;1.00;;;;;;4990488;28;20528;-74
2023/05/28 01:16:05;;;;;;;9.37;4.67;;;17.20;1.00;;;;;;4990891;28;20422;-75
2023/05/28 01:18:31;;;;;;;12.50;5.07;;;17.30;1.00;;;;;;4990485;28;20533;-75
2023/05/28 01:21:00;;;;;;;7.37;4.53;;;17.40;1.00;;;;;;4989169;28;20179;-74
2023/05/28 01:23:28;;;;;;;6.97;4.37;;;17.50;1.00;;;;;;4990570;28;20438;-75
2023/05/28 01:25:55;;;;;;;8.33;4.50;;;17.60;1.00;;;;;;4989193;28;20430;-74
2023/05/28 01:28:21;;;;;;;11.30;4.97;;;17.60;1.00;;;;;;4990117;28;20496;-75
2023/05/28 01:30:47;;;;;;;10.33;4.70;;;17.60;1.00;;;;;;4990367;28;20439;-75
2023/05/28 01:33:13;;;;;;;8.10;4.93;;;17.60;1.00;;;;;;4989626;28;20461;-75
2023/05/28 01:35:42;;;;;;;16.70;4.80;;;17.60;1.00;;;;;;4988353;28;20187;-74
2023/05/28 01:38:10;;;;;;;6.70;4.40;;;17.40;1.00;;;;;;4990205;28;20199;-75
2023/05/28 01:40:38;;;;;;;11.23;4.37;;;17.40;1.00;;;;;;4990322;28;20442;-74
2023/05/28 01:43:04;;;;;;;7.37;4.83;;;17.40;1.00;;;;;;4990759;28;20426;-74
2023/05/28 01:45:30;;;;;;;7.03;4.50;;;17.40;1.00;;;;;;4989244;28;20437;-75
2023/05/28 01:47:56;;;;;;;9.33;4.80;;;17.50;1.00;;;;;;4990139;28;21036;-74
2023/05/28 01:50:22;;;;;;;8.23;4.47;;;17.50;1.00;;;;;;4990602;28;20422;-75
2023/05/28 01:52:48;;;;;;;7.60;4.70;;;17.60;1.00;;;;;;4990172;28;20211;-74
2023/05/28 01:55:14;;;;;;;7.60;4.33;;;17.50;1.00;;;;;;4990339;28;20472;-75
2023/05/28 01:57:40;;;;;;;9.50;4.90;;;17.50;1.00;;;;;;4982032;28;20542;-74
2023/05/28 02:00:07;;;;;;;6.80;4.50;;;17.60;1.00;;;;;;4992022;28;20824;-75
2023/05/28 02:02:34;;;;;;;10.90;4.70;;;17.70;1.00;;;;;;4993874;28;20422;-75
2023/05/28 02:04:59;;;;;;;10.13;4.70;;;17.70;1.00;;;;;;4993558;28;20461;-75
2023/05/28 02:07:25;;;;;;;9.33;5.10;;;17.70;1.00;;;;;;4993618;28;20490;-75
2023/05/28 02:09:51;;;;;;;11.30;4.60;;;17.70;1.00;;;;;;4990803;28;20198;-75
2023/05/28 02:12:16;;;;;;;10.03;5.57;;;17.70;1.00;;;;;;4993835;28;20633;-75
2023/05/28 02:14:43;;;;;;;6.90;4.67;;;17.70;1.00;;;;;;4993377;28;20179;-75
2023/05/28 02:17:09;;;;;;;13.23;4.60;;;17.60;1.00;;;;;;4993564;28;20616;-75
2023/05/28 02:19:35;;;;;;;9.97;5.00;;;17.60;1.00;;;;;;4993769;28;20418;-74
2023/05/28 02:22:01;;;;;;;9.77;4.83;;;17.60;1.00;;;;;;4993293;28;20426;-75
2023/05/28 02:24:26;;;;;;;7.80;4.93;;;17.60;1.00;;;;;;4993531;28;20434;-75
2023/05/28 02:26:52;;;;;;;8.97;4.60;;;17.60;1.00;;;;;;4993029;28;20199;-74
2023/05/28 02:29:17;;;;;;;9.40;5.17;;;17.60;1.00;;;;;;4993833;28;20651;-75
2023/05/28 02:31:43;;;;;;;7.97;4.73;;;17.50;1.00;;;;;;4991620;28;20207;-74
2023/05/28 02:34:08;;;;;;;9.17;4.57;;;17.50;1.00;;;;;;4993295;28;20179;-75
2023/05/28 02:36:35;;;;;;;10.50;5.57;;;17.60;1.00;;;;;;4993217;28;20190;-75
2023/05/28 02:39:02;;;;;;;10.33;4.53;;;17.60;1.00;;;;;;4993384;28;20222;-75
2023/05/28 02:41:27;;;;;;;6.43;4.07;;;17.60;1.00;;;;;;4993106;28;20762;-75
2023/05/28 02:43:53;;;;;;;14.93;4.70;;;17.60;1.00;;;;;;4992913;28;20485;-75
2023/05/28 02:46:19;;;;;;;9.33;5.10;;;17.60;1.00;;;;;;4993160;28;20202;-75
2023/05/28 02:48:45;;;;;;;10.30;5.23;;;17.60;1.00;;;;;;4992891;28;20235;-74
2023/05/28 02:51:11;;;;;;;7.90;4.90;;;17.60;1.00;;;;;;4993083;28;20214;-75
2023/05/28 02:53:36;;;;;;;10.30;5.20;;;17.60;1.00;;;;;;4993464;28;20441;-75
2023/05/28 02:56:02;;;;;;;13.23;5.00;;;17.60;1.00;;;;;;4989943;28;20412;-75
2023/05/28 02:58:28;;;;;;;8.60;4.90;;;17.60;1.00;;;;;;4987803;28;20207;-75
2023/05/28 03:00:54;;;;;;;9.13;5.33;;;17.60;1.00;;;;;;4992629;28;20183;-74
2023/05/28 03:03:20;;;;;;;12.67;5.10;;;17.60;1.00;;;;;;4992700;28;20449;-74
2023/05/28 03:05:46;;;;;;;10.67;5.10;;;17.60;1.00;;;;;;4992562;28;20955;-74
2023/05/28 03:08:11;;;;;;;9.10;5.10;;;17.70;1.00;;;;;;4992317;28;20281;-75
2023/05/28 03:10:37;;;;;;;9.40;4.70;;;17.60;1.00;;;;;;4992837;28;20928;-75
2023/05/28 03:13:03;;;;;;;11.33;5.40;;;17.60;1.00;;;;;;4991594;28;20206;-74
2023/05/28 03:15:28;;;;;;;13.07;4.97;;;17.60;1.00;;;;;;4992762;28;20221;-75
2023/05/28 03:17:54;;;;;;;8.70;5.37;;;17.60;1.00;;;;;;4991727;28;20195;-74
2023/05/28 03:20:19;;;;;;;8.43;5.30;;;17.70;1.00;;;;;;4992712;28;20199;-75
2023/05/28 03:22:48;;;;;;;9.53;5.00;;;17.60;1.00;;;;;;4992067;28;20680;-75
2023/05/28 03:25:13;;;;;;;10.13;5.20;;;17.60;1.00;;;;;;4992587;28;20665;-75
2023/05/28 03:27:39;;;;;;;9.20;5.30;;;18.00;1.00;;;;;;4990733;28;20451;-75
2023/05/28 03:30:07;;;;;;;11.77;5.73;;;17.50;1.00;;;;;;4989083;28;20187;-75
2023/05/28 03:32:32;;;;;;;11.50;6.10;;;17.40;1.00;;;;;;4992205;28;20280;-75
2023/05/28 03:34:58;;;;;;;10.20;5.97;;;17.00;1.00;;;;;;4991838;28;20430;-74
2023/05/28 03:37:26;;;;;;;9.77;5.73;;;16.50;1.00;;;;;;4991896;28;20194;-75
2023/05/28 03:39:52;;;;;;;12.40;6.27;;;16.10;1.00;;;;;;4991877;28;20262;-74
2023/05/28 03:42:17;;;;;;;14.20;6.27;;;15.80;1.00;;;;;;4992105;28;20525;-75
2023/05/28 03:44:43;;;;;;;11.20;5.90;;;15.50;1.00;;;;;;4992655;28;20290;-75
2023/05/28 03:47:08;;;;;;;11.90;6.00;;;15.30;1.00;;;;;;4983827;28;20202;-75
2023/05/28 03:49:34;;;;;;;10.40;5.67;;;15.10;1.00;;;;;;4992013;28;20182;-76
2023/05/28 03:51:59;;;;;;;11.03;6.13;;;15.00;1.00;;;;;;4991500;28;20203;-75
2023/05/28 03:54:25;;;;;;;12.50;5.87;;;14.90;1.00;;;;;;4991881;28;20723;-75
2023/05/28 03:56:50;;;;;;;7.60;5.87;;;14.70;1.00;;;;;;4990653;28;20187;-75
2023/05/28 03:59:16;;;;;;;11.90;5.80;;;14.70;1.00;;;;;;4991807;28;20504;-75
2023/05/28 04:01:41;;;;;;;15.27;6.63;;;14.50;1.00;;;;;;4991536;28;20278;-75
2023/05/28 04:04:07;;;;;;;9.70;5.70;;;14.40;1.00;;;;;;4991203;28;20191;-75
2023/05/28 04:06:32;;;;;;;12.27;5.87;;;14.40;1.00;;;;;;4988896;28;20206;-75
2023/05/28 04:08:58;;;;;;;9.80;5.70;;;14.30;1.00;;;;;;4989537;28;20318;-75
2023/05/28 04:11:24;;;;;;;15.60;7.60;;;14.30;1.00;;;;;;4991336;28;20258;-75
2023/05/28 04:13:51;;;;;;;8.80;5.77;;;14.40;1.00;;;;;;4991167;28;20282;-75
2023/05/28 04:16:17;;;;;;;8.60;5.77;;;14.30;1.00;;;;;;4991303;28;20480;-75
2023/05/28 04:18:42;;;;;;;9.10;5.63;;;14.20;1.00;;;;;;4991354;28;20446;-75
2023/05/28 04:21:08;;;;;;;13.23;6.20;;;14.00;1.00;;;;;;4990774;28;20183;-74
2023/05/28 04:23:33;;;;;;;9.93;6.27;;;13.90;1.00;;;;;;4991181;28;20221;-75
2023/05/28 04:25:59;;;;;;;13.97;6.87;;;13.80;1.00;;;;;;4991063;28;20352;-74
2023/05/28 04:28:27;;;;;;;13.40;6.73;;;13.80;1.00;;;;;;4991005;28;20200;-75
2023/05/28 04:30:55;;;;;;;11.20;6.27;;;13.70;1.00;;;;;;4989620;28;20437;-75
2023/05/28 04:33:21;;;;;;;12.60;6.80;;;13.80;1.00;;;;;;4990844;28;20454;-75
2023/05/28 04:35:47;;;;;;;19.10;6.63;;;13.80;1.00;;;;;;4990647;28;20453;-76
2023/05/28 04:38:12;;;;;;;15.83;6.83;;;13.80;1.00;;;;;;4990786;28;20756;-75
2023/05/28 04:40:39;;;;;;;13.20;6.77;;;13.80;1.00;;;;;;4991079;28;20517;-75
2023/05/28 04:43:05;;;;;;;14.03;6.10;;;13.80;1.00;;;;;;4990857;28;20291;-75
2023/05/28 04:45:32;;;;;;;14.63;6.60;;;13.80;1.00;;;;;;4990978;28;20525;-75
2023/05/28 04:47:58;;;;;;;11.53;6.23;;;13.80;1.00;;;;;;4990334;28;20294;-75
2023/05/28 04:50:24;;;;;;;14.73;7.17;;;13.70;1.00;;;;;;4990758;28;20485;-75
2023/05/28 04:52:50;;;;;;;13.30;6.87;;;13.80;1.00;;;;;;4989266;28;20465;-74
2023/05/28 04:55:16;;;;;;;11.10;6.00;;;13.80;1.00;;;;;;4990800;28;20176;-75
2023/05/28 04:57:42;;;;;;;12.83;6.73;;;14.00;1.00;;;;;;4989364;28;20234;-75
2023/05/28 05:00:12;;;;;;;12.13;6.60;;;14.10;1.00;;;;;;4990901;28;20458;-75
2023/05/28 05:02:38;;;;;;;7.87;5.30;;;14.10;1.00;;;;;;4990711;28;20179;-75
2023/05/28 05:05:04;;;;;;;12.13;5.97;;;14.00;1.00;;;;;;4990699;28;20513;-75
2023/05/28 05:07:30;;;;;;;13.97;6.73;;;14.30;1.00;;;;;;4990490;28;20461;-75
2023/05/28 05:09:56;;;;;;;12.80;6.87;;;14.30;1.00;;;;;;4990696;28;20871;-75
2023/05/28 05:12:21;;;;;;;16.10;6.90;;;14.30;1.00;;;;;;4989186;28;20449;-75
2023/05/28 05:14:47;;;;;;;14.40;6.27;;;14.30;1.00;;;;;;4990763;28;20214;-75
2023/05/28 05:17:12;;;;;;;13.97;6.77;;;14.30;1.00;;;;;;4990551;28;20214;-75
2023/05/28 05:19:38;;;;;;;15.23;7.60;;;14.30;1.00;;;;;;4990692;28;20274;-75
2023/05/28 05:22:04;;;;;;;17.53;7.60;;;14.30;1.00;;;;;;4989978;28;20195;-75
2023/05/28 05:24:30;;;;;;;10.47;6.27;;;14.30;1.00;;;;;;4984521;28;20191;-75
2023/05/28 05:26:56;;;;;;;13.97;6.73;;;14.50;1.00;;;;;;4990035;28;20183;-76
2023/05/28 05:29:21;;;;;;;15.10;6.97;;;14.50;1.00;;;;;;4990885;28;20430;-75
2023/05/28 05:31:47;;;;;;;15.33;6.73;;;14.60;1.00;;;;;;4990438;28;20643;-75
2023/05/28 05:34:12;;;;;;;15.80;7.20;;;14.60;1.00;;;;;;4990068;28;20229;-75
2023/05/28 05:36:40;;;;;;;16.53;7.37;;;14.70;1.00;;;;;;4994145;28;20178;-75
2023/05/28 05:39:06;;;;;;;14.10;7.07;;;14.60;1.00;;;;;;4991247;28;20186;-75
2023/05/28 05:41:31;;;;;;;13.07;6.67;;;14.80;1.00;;;;;;4994252;28;20445;-75
2023/05/28 05:43:57;;;;;;;12.73;7.27;;;14.90;1.00;;;;;;4992735;28;20187;-75
2023/05/28 05:46:22;;;;;;;17.10;6.67;;;15.00;1.00;;;;;;4994071;28;20253;-74
2023/05/28 05:48:48;;;;;;;14.40;7.00;;;15.10;1.00;;;;;;4994137;28;20209;-75
2023/05/28 05:51:18;;;;;;;13.23;6.90;;;15.30;1.00;;;;;;4993862;28;20186;-74
2023/05/28 05:53:44;;;;;;;14.57;7.20;;;15.40;1.00;;;;;;4994343;28;20202;-74
2023/05/28 05:56:10;;;;;;;10.73;6.73;;;15.50;1.00;;;;;;4991949;28;20423;-72
2023/05/28 05:58:36;;;;;;;14.23;7.10;;;15.60;1.00;;;;;;4992691;28;20970;-74
2023/05/28 06:01:02;;;;;;;13.97;6.30;;;15.70;1.00;;;;;;4992370;28;20184;-74
2023/05/28 06:03:28;;;;;;;12.00;6.77;;;15.80;1.00;;;;;;4992808;28;20436;-75
2023/05/28 06:05:53;;;;;;;9.97;6.90;;;15.70;1.00;;;;;;4993714;28;20195;-73
2023/05/28 06:08:19;;;;;;;17.50;7.33;;;15.90;1.00;;;;;;4993489;28;20226;-75
2023/05/28 06:10:47;;;;;;;12.70;7.03;;;16.00;1.00;;;;;;4992549;28;20191;-75
2023/05/28 06:13:13;;;;;;;18.03;6.90;;;16.10;1.00;;;;;;4993283;28;20689;-75
2023/05/28 06:15:39;;;;;;;12.53;6.83;;;16.20;1.00;;;;;;4993674;28;20930;-77
2023/05/28 06:18:05;;;;;;;12.40;7.10;;;16.20;1.00;;;;;;4993330;28;20529;-75
2023/05/28 06:20:30;;;;;;;16.80;6.50;;;16.30;1.00;;;;;;4992480;28;20214;-74
2023/05/28 06:22:56;;;;;;;10.47;6.83;;;16.40;1.00;;;;;;4991827;28;20679;-75
2023/05/28 06:25:22;;;;;;;11.80;7.10;;;16.50;1.00;;;;;;4993515;28;20186;-75
2023/05/28 06:27:48;;;;;;;13.30;6.87;;;16.60;1.00;;;;;;4993337;28;20684;-75
2023/05/28 06:30:14;;;;;;;15.80;7.87;;;16.60;1.00;;;;;;4993169;28;20233;-75
2023/05/28 06:32:40;;;;;;;16.03;7.80;;;16.70;1.00;;;;;;4991787;28;20474;-74
2023/05/28 06:35:07;;;;;;;12.33;7.43;;;16.90;1.00;;;;;;4992969;28;20437;-75
2023/05/28 06:37:33;;;;;;;12.93;6.80;;;17.00;1.00;;;;;;4993079;28;20469;-75
2023/05/28 06:39:58;;;;;;;12.70;7.33;;;17.20;1.00;;;;;;4992999;28;20438;-75
2023/05/28 06:42:24;;;;;;;14.10;7.23;;;17.30;1.00;;;;;;4993170;28;20183;-75
2023/05/28 06:44:50;;;;;;;12.37;6.80;;;17.40;1.00;;;;;;4993143;28;20560;-75
2023/05/28 06:47:15;;;;;;;12.23;6.43;;;17.50;1.00;;;;;;4991318;28;20313;-75
2023/05/28 06:49:41;;;;;;;13.70;6.33;;;17.70;1.00;;;;;;4993188;28;20211;-75
2023/05/28 06:52:07;;;;;;;17.70;7.13;;;17.90;1.00;;;;;;4992744;28;20218;-75
2023/05/28 06:54:32;;;;;;;16.03;7.10;;;18.10;1.00;;;;;;4993100;28;20684;-75
2023/05/28 06:56:58;;;;;;;11.27;6.13;;;18.40;1.00;;;;;;4990367;28;20721;-74
2023/05/28 06:59:23;;;;;;;12.03;6.13;;;18.60;1.00;;;;;;4993030;28;20681;-75
2023/05/28 07:01:49;;;;;;;13.60;6.60;;;18.80;1.00;;;;;;4991802;28;20484;-75
2023/05/28 07:04:14;;;;;;;13.80;5.90;;;19.10;1.00;;;;;;4991073;28;20213;-75
2023/05/28 07:06:40;;;;;;;12.93;6.87;;;19.40;1.00;;;;;;4992338;28;20222;-75
2023/05/28 07:09:06;;;;;;;12.10;6.37;;;;;;;;;;4992703;28;20205;-75
2023/05/28 07:11:31;;;;;;;12.97;6.40;;;19.70;1.00;;;;;;4993029;28;20279;-75
2023/05/28 07:13:57;;;;;;;10.43;6.40;;;19.70;1.00;;;;;;4992662;28;20984;-74
2023/05/28 07:16:22;;;;;;;11.37;6.50;;;20.00;1.00;;;;;;4991574;28;20206;-75
2023/05/28 07:18:48;;;;;;;9.83;6.33;;;20.10;1.00;;;;;;4992914;28;20238;-75
2023/05/28 07:21:14;;;;;;;10.20;6.63;;;20.30;1.00;;;;;;4992519;28;20640;-76
2023/05/28 07:23:39;;;;;;;10.70;6.13;;;20.60;1.00;;;;;;4992419;28;20649;-75
2023/05/28 07:26:05;;;;;;;10.80;6.00;;;20.70;1.00;;;;;;4992410;28;20190;-75
2023/05/28 07:28:31;;;;;;;9.60;6.20;;;20.90;1.00;;;;;;4992581;28;20214;-75
2023/05/28 07:30:56;;;;;;;8.13;5.50;;;23.30;1.00;;;;;;4992558;28;20194;-76
2023/05/28 07:33:22;;;;;;;10.57;5.90;;;21.40;1.00;;;;;;4990437;28;20321;-76
2023/05/28 07:35:48;;;;;;;11.43;5.80;;;21.40;1.00;;;;;;4991381;28;20249;-76
2023/05/28 07:38:14;;;;;;;11.03;5.67;;;21.60;1.00;;;;;;4991358;28;20202;-76
2023/05/28 07:40:40;;;;;;;11.10;6.13;;;22.00;1.00;;;;;;4991002;28;20187;-76
2023/05/28 07:43:06;;;;;;;10.60;5.70;;;22.30;1.00;;;;;;4990683;28;20966;-76
2023/05/28 07:45:31;;;;;;;12.50;5.77;;;22.60;1.00;;;;;;4992342;28;20449;-76
2023/05/28 07:47:57;;;;;;;9.83;5.97;;;22.60;1.00;;;;;;4992162;28;20248;-76
2023/05/28 07:50:22;;;;;;;8.03;5.50;;;22.70;1.00;;;;;;4992221;28;20632;-76
2023/05/28 07:52:48;;;;;;;11.83;6.17;;;22.90;1.00;;;;;;4992487;28;20215;-76
2023/05/28 07:55:14;;;;;;;12.17;5.57;;;23.10;1.00;;;;;;4991846;28;20183;-76
2023/05/28 07:57:39;;;;;;;11.73;6.27;;;23.10;1.00;;;;;;4989085;28;20209;-76
2023/05/28 08:00:06;;;;;;;9.90;5.93;;;23.30;1.00;;;;;;4991647;28;20178;-76
2023/05/28 08:02:33;;;;;;;11.40;5.67;;;23.30;1.00;;;;;;4992017;28;20186;-76
2023/05/28 08:05:00;;;;;;;10.57;6.07;;;23.40;1.00;;;;;;4991944;28;20477;-76
2023/05/28 08:07:27;;;;;;;10.53;6.03;;;24.00;1.00;;;;;;4987732;28;20467;-76
2023/05/28 08:09:52;;;;;;;11.53;6.10;;;24.00;1.00;;;;;;4992009;28;20942;-76
2023/05/28 08:12:18;;;;;;;12.03;6.43;;;24.10;1.00;;;;;;4991283;28;20457;-76
2023/05/28 08:14:43;;;;;;;10.80;6.10;;;24.20;1.00;;;;;;4991661;28;20217;-75
2023/05/28 08:17:08;;;;;;;8.67;5.70;;;24.40;1.00;;;;;;4989979;28;20206;-76
2023/05/28 08:19:35;;;;;;;11.57;6.27;;;24.20;1.00;;;;;;4991754;28;20621;-76
2023/05/28 08:22:00;;;;;;;8.40;5.57;;;24.20;1.00;;;;;;4991362;28;20187;-75
2023/05/28 08:24:26;;;;;;;14.77;6.50;;;24.20;1.00;;;;;;4991591;28;20481;-76
2023/05/28 08:26:51;;;;;;;12.70;6.40;;;24.30;1.00;;;;;;4991277;28;20199;-76
2023/05/28 08:29:17;;;;;;;10.83;5.53;;;24.60;1.00;;;;;;4991278;28;20191;-76
2023/05/28 08:31:42;;;;;;;11.23;6.60;;;24.40;1.00;;;;;;4991445;28;20186;-76
2023/05/28 08:34:08;;;;;;;12.93;6.20;;;24.50;1.00;;;;;;4991120;28;20297;-76
2023/05/28 08:36:35;;;;;;;16.33;7.27;;;24.70;1.00;;;;;;4991311;28;20233;-76
2023/05/28 08:39:00;;;;;;;11.60;6.10;;;25.10;1.00;;;;;;4991385;28;20225;-76
2023/05/28 08:41:26;;;;;;;13.53;6.20;;;25.60;1.00;;;;;;4983382;28;20943;-76
2023/05/28 08:43:52;;;;;;;10.40;6.53;;;26.10;1.00;;;;;;4991266;28;20223;-76
2023/05/28 08:46:18;;;;;;;12.57;5.67;;;26.60;1.00;;;;;;4990875;28;20194;-76
2023/05/28 08:48:44;;;;;;;9.43;5.90;;;26.80;1.00;;;;;;4990167;28;20261;-76
2023/05/28 08:51:11;;;;;;;10.70;5.90;;;27.20;1.00;;;;;;4990892;28;20429;-76
2023/05/28 08:53:43;;;;;;;10.20;6.50;;;27.10;1.00;;;;;;4989713;28;20225;-76
2023/05/28 08:56:09;;;;;;;9.77;6.07;;;27.70;1.00;;;;;;4990595;28;20221;-76
2023/05/28 08:58:41;;;;;;;11.80;6.10;;;28.10;1.00;;;;;;4991186;28;20553;-76
2023/05/28 09:01:10;;;;;;;8.23;5.40;;;29.00;1.00;;;;;;4991133;28;20261;-76
2023/05/28 09:03:39;;;;;;;14.00;6.50;;;30.00;1.00;;;;;;4991137;28;20758;-76
2023/05/28 09:06:04;;;;;;;10.60;5.85;;;31.10;1.00;;;;;;4990817;28;20178;-75
2023/05/28 09:08:30;;;;;;;12.50;5.78;;;32.00;1.00;;;;;;4990799;28;20577;-76
2023/05/28 09:11:09;;;;;;;8.73;5.50;;;32.70;1.00;;;;;;4990506;28;20186;-76
2023/05/28 09:13:34;;;;;;;13.20;5.63;;;33.10;1.00;;;;;;4990986;28;20592;-77
2023/05/28 09:16:00;;;;;;;8.75;5.20;;;33.30;1.00;;;;;;4991138;28;20185;-76
2023/05/28 09:18:25;;;;;;;8.77;5.20;;;33.70;1.00;;;;;;4990661;28;20241;-77
2023/05/28 09:20:51;;;;;;;11.30;5.38;;;34.10;1.00;;;;;;4991556;28;20212;-77
2023/05/28 09:23:18;;;;;;;8.98;4.90;;;34.50;1.00;;;;;;4989024;28;20218;-77
2023/05/28 09:25:44;;;;;;;12.90;5.60;;;34.90;1.00;;;;;;4991376;28;20186;-77
2023/05/28 09:28:13;;;;;;;9.65;5.40;;;35.40;1.00;;;;;;4990717;28;20293;-77
2023/05/28 09:30:39;;;;;;;11.05;6.03;;;35.80;1.00;;;;;;4989279;28;20209;-77
2023/05/28 09:33:07;;;;;;;10.50;5.50;;;35.90;1.00;;;;;;4990299;28;20202;-74
2023/05/28 09:35:33;;;;;;;9.88;5.35;;;36.10;1.00;;;;;;4990979;28;20187;-77
2023/05/28 09:38:04;;;;;;;8.50;5.28;;;36.60;1.00;;;;;;4990410;28;20209;-77
2023/05/28 09:40:30;;;;;;;7.30;5.28;;;37.00;1.00;;;;;;4989542;28;20600;-77
2023/05/28 09:45:29;;;;;;;7.95;5.45;;;37.60;1.00;;;;;;4987724;28;20222;-74
2023/05/28 09:47:55;;;;;;;8.57;5.07;;;37.70;1.00;;;;;;4990574;28;20212;-74
2023/05/28 09:50:20;;;;;;;9.43;5.05;;;37.70;1.00;;;;;;4990770;28;20186;-76
2023/05/28 09:52:46;;;;;;;8.70;4.68;;;37.50;1.00;;;;;;4989516;28;20229;-75
2023/05/28 09:55:15;;;;;;;10.43;5.65;;;38.00;1.00;;;;;;4990845;28;20706;-75
2023/05/28 09:58:05;;;;;;;9.32;5.15;;;38.40;1.00;;;;;;4987071;28;20269;-75
2023/05/28 10:00:47;;;;;;;11.00;5.25;;;37.70;1.00;;;;;;4982394;28;20285;-75
2023/05/28 10:03:35;;;;;;;7.72;5.18;;;38.20;1.00;;;;;;4986613;28;20190;-75
2023/05/28 10:06:06;;;;;;;10.32;5.97;;;38.20;1.00;;;;;;4990403;28;20194;-74
2023/05/28 10:08:37;;;;;;;8.38;4.60;;;38.50;1.00;;;;;;4990081;28;20704;-75
2023/05/28 10:11:05;;;;;;;12.43;5.32;;;38.80;1.00;;;;;;4988838;28;20190;-74
2023/05/28 10:13:31;;;;;;;7.40;4.90;;;39.00;1.00;;;;;;4988464;28;20221;-75
2023/05/28 10:15:57;;;;;;;12.32;5.30;;;39.00;1.00;;;;;;4990490;28;20206;-75
2023/05/28 10:18:24;;;;;;;8.20;5.38;;;39.30;1.00;;;;;;4988635;28;20261;-75
2023/05/28 10:20:51;;;;;;;9.10;5.20;;;39.50;1.00;;;;;;4991237;28;20198;-75
2023/05/28 10:23:19;;;;;;;8.77;5.43;;;38.60;1.00;;;;;;4991750;28;20265;-75
2023/05/28 10:25:45;;;;;;;7.75;4.60;;;38.70;1.00;;;;;;4992256;28;20193;-75
2023/05/28 10:28:14;;;;;;;12.00;4.93;;;39.40;1.00;;;;;;4993526;28;20506;-75
2023/05/28 10:30:40;;;;;;;10.88;4.88;;;39.40;1.00;;;;;;4993995;28;20179;-75
2023/05/28 10:33:09;;;;;;;8.68;5.07;;;38.80;1.00;;;;;;4993329;28;20205;-75
2023/05/28 10:35:49;;;;;;;8.38;4.45;;;38.90;1.00;;;;;;4993344;28;20293;-75
2023/05/28 10:38:15;;;;;;;8.35;4.95;;;38.90;1.00;;;;;;4992864;28;20171;-76
2023/05/28 10:40:40;;;;;;;7.78;4.65;;;39.00;1.00;;;;;;4993206;28;20187;-75
2023/05/28 10:43:38;;;;;;;7.68;4.60;;;38.20;1.00;;;;;;4992858;28;20178;-75
2023/05/28 10:46:10;;;;;;;10.15;5.05;;;38.30;1.00;;;;;;4993024;28;20190;-75
2023/05/28 10:49:02;;;;;;;9.50;4.80;;;39.10;1.00;;;;;;4985394;28;20586;-75
2023/05/28 10:51:57;;;;;;;8.43;4.80;;;39.70;1.00;;;;;;4992550;28;20272;-75
2023/05/28 10:54:29;;;;;;;10.18;4.88;;;39.80;1.00;;;;;;4992569;28;20361;-76
2023/05/28 10:57:18;;;;;;;9.07;5.10;;;38.10;1.00;;;;;;4988922;28;20186;-75
2023/05/28 10:59:58;;;;;;;9.77;4.95;;;37.60;1.00;;;;;;4991640;28;20175;-75
2023/05/28 11:02:26;;;;;;;8.43;4.40;;;37.60;1.00;;;;;;4982960;28;20191;-76
2023/05/28 11:04:56;;;;;;;8.85;5.00;;;37.80;1.00;;;;;;4992581;28;20705;-76
2023/05/28 11:07:27;;;;;;;9.82;5.00;;;38.20;1.00;;;;;;4992440;28;20194;-76
2023/05/28 11:09:55;;;;;;;8.82;5.25;;;38.30;1.00;;;;;;4992826;28;20244;-75
2023/05/28 11:12:21;;;;;;;12.15;4.60;;;38.00;1.00;;;;;;4990892;28;20661;-75
2023/05/28 11:14:47;;;;;;;9.80;4.72;;;37.90;1.00;;;;;;4990964;28;20202;-75
2023/05/28 11:17:13;;;;;;;7.13;4.60;;;38.30;1.00;;;;;;4990807;28;20202;-74
2023/05/28 11:19:50;;;;;;;8.45;4.80;;;38.20;1.00;;;;;;4992465;28;20266;-75
2023/05/28 11:22:17;;;;;;;6.38;4.15;;;38.30;1.00;;;;;;4990838;28;20735;-75
2023/05/28 11:24:59;;;;;;;8.15;4.78;;;39.00;1.00;;;;;;4992470;28;20203;-76
2023/05/28 11:27:26;;;;;;;10.10;5.32;;;40.10;1.00;;;;;;4990560;28;20193;-75
2023/05/28 11:29:55;;;;;;;9.20;4.90;;;39.80;1.00;;;;;;4992403;28;20183;-75
2023/05/28 11:32:20;;;;;;;7.05;4.65;;;39.30;1.00;;;;;;4991133;28;20684;-75
2023/05/28 11:34:50;;;;;;;8.55;5.00;;;39.60;1.00;;;;;;4990821;28;20225;-75
2023/05/28 11:37:16;;;;;;;10.07;4.65;;;40.80;1.00;;;;;;4991602;28;20237;-74
2023/05/28 11:39:49;;;;;;;8.52;4.47;;;40.50;1.00;;;;;;4987903;28;20183;-75
2023/05/28 11:42:16;;;;;;;9.60;4.65;;;40.20;1.00;;;;;;4991881;28;20660;-75
2023/05/28 11:44:48;;;;;;;8.15;4.88;;;40.80;1.00;;;;;;4991932;28;20762;-75
2023/05/28 11:47:14;;;;;;;8.70;4.78;;;40.40;1.00;;;;;;4991478;28;20178;-73
2023/05/28 11:49:41;;;;;;;10.18;4.72;;;40.20;1.00;;;;;;4991978;28;20201;-77
2023/05/28 11:52:18;;;;;;;9.48;5.13;;;39.70;1.00;;;;;;4991893;28;20217;-75
2023/05/28 11:54:46;;;;;;;7.38;4.53;;;39.90;1.00;;;;;;4984542;28;20198;-74
2023/05/28 11:57:21;;;;;;;7.28;4.80;;;40.50;1.00;;;;;;4990189;28;20185;-75
2023/05/28 11:59:58;;;;;;;8.00;4.97;;;40.00;1.00;;;;;;4991874;28;20210;-75
2023/05/28 12:02:24;;;;;;;8.90;4.85;;;39.70;1.00;;;;;;4991303;28;20274;-75
2023/05/28 12:04:57;;;;;;;9.35;4.90;;;39.80;1.00;;;;;;4989679;28;20325;-74
2023/05/28 12:07:34;;;;;;;9.02;5.10;;;40.50;1.00;;;;;;4991433;28;20213;-76
2023/05/28 12:10:08;;;;;;;8.35;4.88;;;40.90;1.00;;;;;;4992078;28;20201;-75
2023/05/28 12:12:38;;;;;;;9.50;4.82;;;40.30;1.00;;;;;;4991254;28;20214;-75
2023/05/28 12:15:05;;;;;;;8.00;5.22;;;40.00;1.00;;;;;;4990106;28;20547;-75
2023/05/28 12:17:38;;;;;;;10.43;5.30;;;39.40;1.00;;;;;;4990756;28;20716;-75
2023/05/28 12:20:25;;;;;;;7.28;5.10;;;39.60;1.00;;;;;;4991352;28;20725;-75
2023/05/28 12:23:00;;;;;;;6.78;4.70;;;39.90;1.00;;;;;;4980784;28;20230;-75
2023/05/28 12:25:26;;;;;;;8.57;4.80;;;40.70;1.00;;;;;;4991133;28;20401;-75
2023/05/28 12:27:51;;;;;;;9.85;4.88;;;41.20;1.00;;;;;;4991406;28;20186;-75
2023/05/28 12:30:17;;;;;;;8.65;4.97;;;41.60;1.00;;;;;;4990924;28;20186;-74
2023/05/28 12:32:42;;;;;;;7.93;4.90;;;41.00;1.00;;;;;;4991036;28;20214;-76
2023/05/28 12:35:08;;;;;;;7.63;4.80;;;41.10;1.00;;;;;;4991034;28;20377;-75
2023/05/28 12:37:33;;;;;;;9.02;4.90;;;41.60;1.00;;;;;;4989273;28;20232;-75
2023/05/28 12:39:59;;;;;;;7.57;5.00;;;41.40;1.00;;;;;;4991200;28;20471;-75
2023/05/28 12:42:25;;;;;;;8.10;5.13;;;41.20;1.00;;;;;;4990603;28;20589;-74
2023/05/28 12:44:50;;;;;;;8.73;5.13;;;40.80;1.00;;;;;;4989977;28;20206;-75
2023/05/28 12:47:16;;;;;;;9.93;4.70;;;40.40;1.00;;;;;;4990853;28;20186;-75
2023/05/28 12:49:41;;;;;;;9.10;5.07;;;40.20;1.00;;;;;;4991126;28;20186;-76
2023/05/28 12:52:07;;;;;;;7.88;5.05;;;40.20;1.00;;;;;;4990967;28;20222;-74
2023/05/28 12:54:33;;;;;;;12.32;4.80;;;41.20;1.00;;;;;;4990466;28;20219;-75